sensor_id;sensor_type;location;lat;lon;timestamp;P1;durP1;ratioP1;P2;durP2;ratioP2
65031;SDS011;51593;55.714;37.436;2022-10-30T00:00:33;5.07;;;3.10;;
65031;SDS011;51593;55.714;37.436;2022-10-30T00:02:59;5.57;;;3.45;;
65031;SDS011;51593;55.714;37.436;2022-10-30T00:05:25;7.72;;;3.53;;
65031;SDS011;51593;55.714;37.436;2022-10-30T00:07:51;5.43;;;3.28;;
65031;SDS011;51593;55.714;37.436;2022-10-30T00:10:19;5.20;;;3.20;;
65031;SDS011;51593;55.714;37.436;2022-10-30T00:12:45;4.38;;;3.05;;
65031;SDS011;51593;55.714;37.436;2022-10-30T00:15:11;8.95;;;3.28;;
65031;SDS011;51593;55.714;37.436;2022-10-30T00:17:36;7.90;;;3.47;;
65031;SDS011;51593;55.714;37.436;2022-10-30T00:20:02;4.88;;;3.35;;
65031;SDS011;51593;55.714;37.436;2022-10-30T00:22:29;6.25;;;3.67;;
65031;SDS011;51593;55.714;37.436;2022-10-30T00:24:54;5.25;;;3.13;;
65031;SDS011;51593;55.714;37.436;2022-10-30T00:27:20;7.85;;;3.60;;
65031;SDS011;51593;55.714;37.436;2022-10-30T00:29:46;5.68;;;3.40;;
65031;SDS011;51593;55.714;37.436;2022-10-30T00:32:12;6.82;;;3.88;;
65031;SDS011;51593;55.714;37.436;2022-10-30T00:34:38;6.55;;;3.50;;
65031;SDS011;51593;55.714;37.436;2022-10-30T00:37:06;7.25;;;3.65;;
65031;SDS011;51593;55.714;37.436;2022-10-30T00:39:32;5.88;;;3.67;;
65031;SDS011;51593;55.714;37.436;2022-10-30T00:41:58;6.57;;;4.00;;
65031;SDS011;51593;55.714;37.436;2022-10-30T00:49:56;7.65;;;3.85;;
65031;SDS011;51593;55.714;37.436;2022-10-30T00:52:28;8.05;;;3.90;;
65031;SDS011;51593;55.714;37.436;2022-10-30T00:54:57;7.25;;;3.80;;
65031;SDS011;51593;55.714;37.436;2022-10-30T00:57:44;6.68;;;3.83;;
65031;SDS011;51593;55.714;37.436;2022-10-30T01:00:11;7.38;;;3.58;;
65031;SDS011;51593;55.714;37.436;2022-10-30T01:02:38;9.25;;;4.15;;
65031;SDS011;51593;55.714;37.436;2022-10-30T01:05:04;7.22;;;4.05;;
65031;SDS011;51593;55.714;37.436;2022-10-30T01:07:31;6.80;;;4.00;;
65031;SDS011;51593;55.714;37.436;2022-10-30T01:09:56;9.85;;;4.68;;
65031;SDS011;51593;55.714;37.436;2022-10-30T01:12:22;6.75;;;4.45;;
65031;SDS011;51593;55.714;37.436;2022-10-30T01:14:49;8.13;;;4.20;;
65031;SDS011;51593;55.714;37.436;2022-10-30T01:31:06;7.47;;;4.35;;
65031;SDS011;51593;55.714;37.436;2022-10-30T01:34:05;9.55;;;4.53;;
65031;SDS011;51593;55.714;37.436;2022-10-30T01:40:14;8.27;;;4.07;;
65031;SDS011;51593;55.714;37.436;2022-10-30T01:42:57;7.45;;;4.00;;
65031;SDS011;51593;55.714;37.436;2022-10-30T01:53:58;7.95;;;4.65;;
65031;SDS011;51593;55.714;37.436;2022-10-30T01:59:39;7.90;;;4.68;;
65031;SDS011;51593;55.714;37.436;2022-10-30T02:02:07;7.72;;;4.57;;
65031;SDS011;51593;55.714;37.436;2022-10-30T02:04:33;7.10;;;4.55;;
65031;SDS011;51593;55.714;37.436;2022-10-30T02:06:59;9.55;;;4.40;;
65031;SDS011;51593;55.714;37.436;2022-10-30T02:09:25;7.35;;;4.07;;
65031;SDS011;51593;55.714;37.436;2022-10-30T02:11:51;5.50;;;3.88;;
65031;SDS011;51593;55.714;37.436;2022-10-30T02:14:20;9.02;;;4.18;;
65031;SDS011;51593;55.714;37.436;2022-10-30T02:16:55;7.63;;;4.00;;
65031;SDS011;51593;55.714;37.436;2022-10-30T02:19:23;7.75;;;4.10;;
65031;SDS011;51593;55.714;37.436;2022-10-30T02:21:49;7.68;;;4.00;;
65031;SDS011;51593;55.714;37.436;2022-10-30T02:24:15;6.70;;;3.25;;
65031;SDS011;51593;55.714;37.436;2022-10-30T02:26:41;7.70;;;3.38;;
65031;SDS011;51593;55.714;37.436;2022-10-30T02:29:07;5.63;;;3.30;;
65031;SDS011;51593;55.714;37.436;2022-10-30T02:31:33;7.95;;;3.40;;
65031;SDS011;51593;55.714;37.436;2022-10-30T02:33:58;7.60;;;3.38;;
65031;SDS011;51593;55.714;37.436;2022-10-30T02:36:25;5.85;;;2.90;;
65031;SDS011;51593;55.714;37.436;2022-10-30T02:38:53;6.22;;;3.33;;
65031;SDS011;51593;55.714;37.436;2022-10-30T02:41:20;6.50;;;3.30;;
65031;SDS011;51593;55.714;37.436;2022-10-30T02:43:46;4.97;;;2.88;;
65031;SDS011;51593;55.714;37.436;2022-10-30T02:46:12;6.05;;;3.00;;
65031;SDS011;51593;55.714;37.436;2022-10-30T02:48:38;5.40;;;3.00;;
65031;SDS011;51593;55.714;37.436;2022-10-30T02:51:04;6.47;;;3.08;;
65031;SDS011;51593;55.714;37.436;2022-10-30T02:53:30;6.07;;;3.30;;
65031;SDS011;51593;55.714;37.436;2022-10-30T02:56:01;4.68;;;2.70;;
65031;SDS011;51593;55.714;37.436;2022-10-30T02:58:34;7.55;;;3.10;;
65031;SDS011;51593;55.714;37.436;2022-10-30T03:01:08;5.03;;;2.63;;
65031;SDS011;51593;55.714;37.436;2022-10-30T03:03:35;5.13;;;2.83;;
65031;SDS011;51593;55.714;37.436;2022-10-30T03:06:02;5.55;;;2.83;;
65031;SDS011;51593;55.714;37.436;2022-10-30T03:08:29;4.88;;;2.65;;
65031;SDS011;51593;55.714;37.436;2022-10-30T03:10:58;4.85;;;2.60;;
65031;SDS011;51593;55.714;37.436;2022-10-30T03:13:26;6.38;;;2.50;;
65031;SDS011;51593;55.714;37.436;2022-10-30T03:15:57;4.80;;;2.63;;
65031;SDS011;51593;55.714;37.436;2022-10-30T03:18:24;5.82;;;2.70;;
65031;SDS011;51593;55.714;37.436;2022-10-30T03:20:49;4.65;;;2.70;;
65031;SDS011;51593;55.714;37.436;2022-10-30T03:23:20;8.07;;;2.90;;
65031;SDS011;51593;55.714;37.436;2022-10-30T03:25:46;6.85;;;2.83;;
65031;SDS011;51593;55.714;37.436;2022-10-30T03:28:11;4.25;;;2.63;;
65031;SDS011;51593;55.714;37.436;2022-10-30T03:30:37;4.18;;;2.33;;
65031;SDS011;51593;55.714;37.436;2022-10-30T03:33:03;6.30;;;2.65;;
65031;SDS011;51593;55.714;37.436;2022-10-30T03:35:29;5.60;;;2.80;;
65031;SDS011;51593;55.714;37.436;2022-10-30T03:37:55;5.18;;;2.58;;
65031;SDS011;51593;55.714;37.436;2022-10-30T03:40:21;5.30;;;2.40;;
65031;SDS011;51593;55.714;37.436;2022-10-30T03:42:47;5.50;;;2.55;;
65031;SDS011;51593;55.714;37.436;2022-10-30T03:45:13;3.83;;;2.40;;
65031;SDS011;51593;55.714;37.436;2022-10-30T03:47:39;4.35;;;2.70;;
65031;SDS011;51593;55.714;37.436;2022-10-30T03:50:07;5.90;;;2.28;;
65031;SDS011;51593;55.714;37.436;2022-10-30T03:52:33;5.38;;;2.45;;
65031;SDS011;51593;55.714;37.436;2022-10-30T03:54:59;5.85;;;2.78;;
65031;SDS011;51593;55.714;37.436;2022-10-30T03:57:24;4.22;;;2.22;;
65031;SDS011;51593;55.714;37.436;2022-10-30T04:00:06;4.82;;;2.35;;
65031;SDS011;51593;55.714;37.436;2022-10-30T04:02:51;3.20;;;2.20;;
65031;SDS011;51593;55.714;37.436;2022-10-30T04:05:18;3.67;;;2.10;;
65031;SDS011;51593;55.714;37.436;2022-10-30T04:07:46;5.13;;;2.20;;
65031;SDS011;51593;55.714;37.436;2022-10-30T04:10:13;4.55;;;2.30;;
65031;SDS011;51593;55.714;37.436;2022-10-30T04:12:39;6.15;;;2.50;;
65031;SDS011;51593;55.714;37.436;2022-10-30T04:15:06;3.60;;;2.13;;
65031;SDS011;51593;55.714;37.436;2022-10-30T04:17:33;2.92;;;2.10;;
65031;SDS011;51593;55.714;37.436;2022-10-30T04:20:02;7.05;;;2.15;;
65031;SDS011;51593;55.714;37.436;2022-10-30T04:22:30;4.03;;;2.00;;
65031;SDS011;51593;55.714;37.436;2022-10-30T04:24:56;2.47;;;1.70;;
65031;SDS011;51593;55.714;37.436;2022-10-30T04:27:22;10.07;;;3.95;;
65031;SDS011;51593;55.714;37.436;2022-10-30T04:29:48;3.97;;;2.15;;
65031;SDS011;51593;55.714;37.436;2022-10-30T04:32:14;4.10;;;1.80;;
65031;SDS011;51593;55.714;37.436;2022-10-30T04:34:40;3.25;;;1.75;;
65031;SDS011;51593;55.714;37.436;2022-10-30T04:37:06;4.65;;;2.10;;
65031;SDS011;51593;55.714;37.436;2022-10-30T04:39:32;2.92;;;1.65;;
65031;SDS011;51593;55.714;37.436;2022-10-30T04:42:06;4.07;;;2.00;;
65031;SDS011;51593;55.714;37.436;2022-10-30T04:44:33;6.63;;;2.00;;
65031;SDS011;51593;55.714;37.436;2022-10-30T04:46:59;9.25;;;2.17;;
65031;SDS011;51593;55.714;37.436;2022-10-30T04:49:24;3.30;;;1.52;;
65031;SDS011;51593;55.714;37.436;2022-10-30T04:51:50;3.85;;;1.75;;
65031;SDS011;51593;55.714;37.436;2022-10-30T04:54:16;4.32;;;1.70;;
65031;SDS011;51593;55.714;37.436;2022-10-30T04:56:42;3.30;;;1.70;;
65031;SDS011;51593;55.714;37.436;2022-10-30T04:59:08;4.38;;;1.73;;
65031;SDS011;51593;55.714;37.436;2022-10-30T05:01:33;5.03;;;1.73;;
65031;SDS011;51593;55.714;37.436;2022-10-30T05:04:00;2.90;;;1.67;;
65031;SDS011;51593;55.714;37.436;2022-10-30T05:06:29;2.47;;;1.65;;
65031;SDS011;51593;55.714;37.436;2022-10-30T05:08:56;2.80;;;1.50;;
65031;SDS011;51593;55.714;37.436;2022-10-30T05:11:32;5.10;;;1.90;;
65031;SDS011;51593;55.714;37.436;2022-10-30T05:13:58;5.47;;;1.60;;
65031;SDS011;51593;55.714;37.436;2022-10-30T05:16:24;6.88;;;1.90;;
65031;SDS011;51593;55.714;37.436;2022-10-30T05:18:51;5.22;;;1.75;;
65031;SDS011;51593;55.714;37.436;2022-10-30T05:21:21;2.50;;;1.40;;
65031;SDS011;51593;55.714;37.436;2022-10-30T05:23:47;5.25;;;1.83;;
65031;SDS011;51593;55.714;37.436;2022-10-30T05:26:13;4.10;;;1.48;;
65031;SDS011;51593;55.714;37.436;2022-10-30T05:28:38;3.47;;;1.65;;
65031;SDS011;51593;55.714;37.436;2022-10-30T05:31:05;3.30;;;1.60;;
65031;SDS011;51593;55.714;37.436;2022-10-30T05:34:00;5.30;;;1.65;;
65031;SDS011;51593;55.714;37.436;2022-10-30T05:36:26;2.65;;;1.52;;
65031;SDS011;51593;55.714;37.436;2022-10-30T05:38:52;2.10;;;1.42;;
65031;SDS011;51593;55.714;37.436;2022-10-30T05:41:40;5.05;;;1.65;;
65031;SDS011;51593;55.714;37.436;2022-10-30T05:44:07;3.90;;;1.58;;
65031;SDS011;51593;55.714;37.436;2022-10-30T05:46:33;3.42;;;1.60;;
65031;SDS011;51593;55.714;37.436;2022-10-30T05:49:11;4.57;;;1.65;;
65031;SDS011;51593;55.714;37.436;2022-10-30T05:51:37;5.53;;;1.75;;
65031;SDS011;51593;55.714;37.436;2022-10-30T05:54:03;1.98;;;1.50;;
65031;SDS011;51593;55.714;37.436;2022-10-30T05:56:31;2.85;;;1.45;;
65031;SDS011;51593;55.714;37.436;2022-10-30T05:58:58;3.83;;;1.63;;
65031;SDS011;51593;55.714;37.436;2022-10-30T06:01:24;2.33;;;1.40;;
65031;SDS011;51593;55.714;37.436;2022-10-30T06:03:53;5.38;;;1.77;;
65031;SDS011;51593;55.714;37.436;2022-10-30T06:06:19;4.43;;;1.88;;
65031;SDS011;51593;55.714;37.436;2022-10-30T06:08:45;5.15;;;1.55;;
65031;SDS011;51593;55.714;37.436;2022-10-30T06:11:40;4.40;;;1.40;;
65031;SDS011;51593;55.714;37.436;2022-10-30T06:14:08;4.43;;;1.48;;
65031;SDS011;51593;55.714;37.436;2022-10-30T06:16:42;4.10;;;1.40;;
65031;SDS011;51593;55.714;37.436;2022-10-30T06:19:17;5.47;;;1.42;;
65031;SDS011;51593;55.714;37.436;2022-10-30T06:21:43;2.88;;;1.40;;
65031;SDS011;51593;55.714;37.436;2022-10-30T06:24:27;3.35;;;1.40;;
65031;SDS011;51593;55.714;37.436;2022-10-30T06:27:16;3.35;;;1.30;;
65031;SDS011;51593;55.714;37.436;2022-10-30T06:29:42;4.32;;;1.20;;
65031;SDS011;51593;55.714;37.436;2022-10-30T06:32:09;2.08;;;1.10;;
65031;SDS011;51593;55.714;37.436;2022-10-30T06:34:35;2.28;;;0.90;;
65031;SDS011;51593;55.714;37.436;2022-10-30T06:37:01;4.13;;;1.00;;
65031;SDS011;51593;55.714;37.436;2022-10-30T06:39:27;2.88;;;0.90;;
65031;SDS011;51593;55.714;37.436;2022-10-30T06:42:21;2.33;;;0.90;;
65031;SDS011;51593;55.714;37.436;2022-10-30T06:45:16;1.80;;;0.90;;
65031;SDS011;51593;55.714;37.436;2022-10-30T06:47:43;3.85;;;0.80;;
65031;SDS011;51593;55.714;37.436;2022-10-30T06:50:10;1.98;;;0.90;;
65031;SDS011;51593;55.714;37.436;2022-10-30T06:52:37;1.88;;;1.13;;
65031;SDS011;51593;55.714;37.436;2022-10-30T06:55:07;3.80;;;1.20;;
65031;SDS011;51593;55.714;37.436;2022-10-30T06:57:59;2.70;;;1.10;;
65031;SDS011;51593;55.714;37.436;2022-10-30T07:00:58;1.20;;;1.10;;
65031;SDS011;51593;55.714;37.436;2022-10-30T07:03:44;3.05;;;1.05;;
65031;SDS011;51593;55.714;37.436;2022-10-30T07:06:13;5.90;;;1.33;;
65031;SDS011;51593;55.714;37.436;2022-10-30T07:08:39;6.25;;;1.20;;
65031;SDS011;51593;55.714;37.436;2022-10-30T07:11:05;2.38;;;1.23;;
65031;SDS011;51593;55.714;37.436;2022-10-30T07:14:07;3.03;;;1.08;;
65031;SDS011;51593;55.714;37.436;2022-10-30T07:16:36;4.20;;;0.80;;
65031;SDS011;51593;55.714;37.436;2022-10-30T07:19:03;8.43;;;1.10;;
65031;SDS011;51593;55.714;37.436;2022-10-30T07:21:30;1.23;;;0.90;;
65031;SDS011;51593;55.714;37.436;2022-10-30T07:23:56;0.90;;;0.90;;
65031;SDS011;51593;55.714;37.436;2022-10-30T07:26:29;3.55;;;1.10;;
65031;SDS011;51593;55.714;37.436;2022-10-30T07:28:59;3.95;;;0.93;;
65031;SDS011;51593;55.714;37.436;2022-10-30T07:31:41;3.30;;;1.30;;
65031;SDS011;51593;55.714;37.436;2022-10-30T07:34:29;5.28;;;1.30;;
65031;SDS011;51593;55.714;37.436;2022-10-30T07:37:19;2.17;;;0.98;;
65031;SDS011;51593;55.714;37.436;2022-10-30T07:40:05;1.30;;;1.05;;
65031;SDS011;51593;55.714;37.436;2022-10-30T07:45:49;1.70;;;1.20;;
65031;SDS011;51593;55.714;37.436;2022-10-30T07:48:38;3.30;;;1.27;;
65031;SDS011;51593;55.714;37.436;2022-10-30T07:51:20;2.38;;;1.10;;
65031;SDS011;51593;55.714;37.436;2022-10-30T07:53:47;3.85;;;1.45;;
65031;SDS011;51593;55.714;37.436;2022-10-30T07:56:14;1.55;;;1.10;;
65031;SDS011;51593;55.714;37.436;2022-10-30T07:58:51;3.08;;;1.20;;
65031;SDS011;51593;55.714;37.436;2022-10-30T08:01:37;1.63;;;1.10;;
65031;SDS011;51593;55.714;37.436;2022-10-30T08:04:30;4.97;;;1.20;;
65031;SDS011;51593;55.714;37.436;2022-10-30T08:07:04;3.45;;;1.25;;
65031;SDS011;51593;55.714;37.436;2022-10-30T08:09:30;5.68;;;1.45;;
65031;SDS011;51593;55.714;37.436;2022-10-30T08:12:17;1.50;;;1.10;;
65031;SDS011;51593;55.714;37.436;2022-10-30T08:14:42;4.78;;;1.15;;
65031;SDS011;51593;55.714;37.436;2022-10-30T08:17:08;4.57;;;1.10;;
65031;SDS011;51593;55.714;37.436;2022-10-30T08:19:35;2.25;;;1.00;;
65031;SDS011;51593;55.714;37.436;2022-10-30T08:22:11;2.13;;;0.90;;
65031;SDS011;51593;55.714;37.436;2022-10-30T08:24:38;3.22;;;0.93;;
65031;SDS011;51593;55.714;37.436;2022-10-30T08:27:04;3.85;;;0.80;;
65031;SDS011;51593;55.714;37.436;2022-10-30T08:29:30;1.38;;;1.05;;
65031;SDS011;51593;55.714;37.436;2022-10-30T08:31:57;3.92;;;1.00;;
65031;SDS011;51593;55.714;37.436;2022-10-30T08:34:22;3.95;;;1.10;;
65031;SDS011;51593;55.714;37.436;2022-10-30T08:36:54;2.00;;;1.00;;
65031;SDS011;51593;55.714;37.436;2022-10-30T08:39:21;4.55;;;1.33;;
65031;SDS011;51593;55.714;37.436;2022-10-30T08:42:12;1.75;;;1.20;;
65031;SDS011;51593;55.714;37.436;2022-10-30T08:44:41;7.22;;;1.38;;
65031;SDS011;51593;55.714;37.436;2022-10-30T08:47:25;3.00;;;1.10;;
65031;SDS011;51593;55.714;37.436;2022-10-30T08:49:51;1.77;;;1.17;;
65031;SDS011;51593;55.714;37.436;2022-10-30T08:52:20;2.80;;;1.15;;
65031;SDS011;51593;55.714;37.436;2022-10-30T08:54:52;4.47;;;1.10;;
65031;SDS011;51593;55.714;37.436;2022-10-30T08:57:18;2.95;;;1.00;;
65031;SDS011;51593;55.714;37.436;2022-10-30T08:59:44;2.75;;;1.08;;
65031;SDS011;51593;55.714;37.436;2022-10-30T09:02:29;1.88;;;1.10;;
65031;SDS011;51593;55.714;37.436;2022-10-30T09:05:27;3.42;;;1.23;;
65031;SDS011;51593;55.714;37.436;2022-10-30T09:08:12;2.13;;;1.05;;
65031;SDS011;51593;55.714;37.436;2022-10-30T09:11:06;4.85;;;1.30;;
65031;SDS011;51593;55.714;37.436;2022-10-30T09:13:33;3.88;;;1.30;;
65031;SDS011;51593;55.714;37.436;2022-10-30T09:16:01;3.85;;;1.42;;
65031;SDS011;51593;55.714;37.436;2022-10-30T09:18:29;2.30;;;1.08;;
65031;SDS011;51593;55.714;37.436;2022-10-30T09:20:56;2.03;;;0.98;;
65031;SDS011;51593;55.714;37.436;2022-10-30T09:23:22;3.92;;;1.33;;
65031;SDS011;51593;55.714;37.436;2022-10-30T09:25:55;1.95;;;1.10;;
65031;SDS011;51593;55.714;37.436;2022-10-30T09:28:40;2.15;;;0.95;;
65031;SDS011;51593;55.714;37.436;2022-10-30T09:31:24;13.23;;;1.45;;
65031;SDS011;51593;55.714;37.436;2022-10-30T09:33:51;3.05;;;1.10;;
65031;SDS011;51593;55.714;37.436;2022-10-30T09:36:39;1.90;;;1.10;;
65031;SDS011;51593;55.714;37.436;2022-10-30T09:39:08;2.47;;;1.13;;
65031;SDS011;51593;55.714;37.436;2022-10-30T09:48:18;2.10;;;1.17;;
65031;SDS011;51593;55.714;37.436;2022-10-30T09:50:30;8.50;;;1.40;;
65031;SDS011;51593;55.714;37.436;2022-10-30T09:56:14;4.15;;;1.30;;
65031;SDS011;51593;55.714;37.436;2022-10-30T10:09:59;3.53;;;1.30;;
65031;SDS011;51593;55.714;37.436;2022-10-30T10:12:45;0.82;;;0.80;;
65031;SDS011;51593;55.714;37.436;2022-10-30T10:15:16;3.40;;;1.00;;
65031;SDS011;51593;55.714;37.436;2022-10-30T10:17:57;3.30;;;1.00;;
65031;SDS011;51593;55.714;37.436;2022-10-30T10:20:28;6.13;;;1.27;;
65031;SDS011;51593;55.714;37.436;2022-10-30T10:23:00;3.55;;;1.23;;
65031;SDS011;51593;55.714;37.436;2022-10-30T10:25:30;4.68;;;1.20;;
65031;SDS011;51593;55.714;37.436;2022-10-30T10:28:07;4.63;;;1.00;;
65031;SDS011;51593;55.714;37.436;2022-10-30T10:31:06;0.90;;;0.90;;
65031;SDS011;51593;55.714;37.436;2022-10-30T10:33:39;3.60;;;1.00;;
65031;SDS011;51593;55.714;37.436;2022-10-30T10:50:15;1.38;;;1.08;;
65031;SDS011;51593;55.714;37.436;2022-10-30T10:52:53;2.90;;;1.20;;
65031;SDS011;51593;55.714;37.436;2022-10-30T10:55:22;1.52;;;0.98;;
65031;SDS011;51593;55.714;37.436;2022-10-30T10:57:51;2.58;;;0.90;;
65031;SDS011;51593;55.714;37.436;2022-10-30T11:00:18;0.73;;;0.73;;
65031;SDS011;51593;55.714;37.436;2022-10-30T11:10:58;1.10;;;1.00;;
65031;SDS011;51593;55.714;37.436;2022-10-30T11:13:28;2.72;;;1.25;;
65031;SDS011;51593;55.714;37.436;2022-10-30T11:19:16;2.40;;;1.13;;
65031;SDS011;51593;55.714;37.436;2022-10-30T11:21:43;4.28;;;1.00;;
65031;SDS011;51593;55.714;37.436;2022-10-30T11:24:31;2.63;;;1.20;;
65031;SDS011;51593;55.714;37.436;2022-10-30T11:32:19;1.67;;;0.85;;
65031;SDS011;51593;55.714;37.436;2022-10-30T11:37:32;1.10;;;1.00;;
65031;SDS011;51593;55.714;37.436;2022-10-30T11:44:59;6.57;;;1.30;;
65031;SDS011;51593;55.714;37.436;2022-10-30T11:47:33;2.42;;;0.98;;
65031;SDS011;51593;55.714;37.436;2022-10-30T11:50:21;2.47;;;1.20;;
65031;SDS011;51593;55.714;37.436;2022-10-30T11:52:52;2.03;;;1.23;;
65031;SDS011;51593;55.714;37.436;2022-10-30T11:55:53;2.10;;;1.35;;
65031;SDS011;51593;55.714;37.436;2022-10-30T12:01:00;2.20;;;1.05;;
65031;SDS011;51593;55.714;37.436;2022-10-30T12:03:32;3.10;;;1.20;;
65031;SDS011;51593;55.714;37.436;2022-10-30T12:06:07;2.47;;;1.13;;
65031;SDS011;51593;55.714;37.436;2022-10-30T12:11:40;1.50;;;1.20;;
65031;SDS011;51593;55.714;37.436;2022-10-30T12:14:19;2.60;;;1.08;;
65031;SDS011;51593;55.714;37.436;2022-10-30T12:16:47;3.15;;;2.17;;
65031;SDS011;51593;55.714;37.436;2022-10-30T12:19:18;5.07;;;1.10;;
65031;SDS011;51593;55.714;37.436;2022-10-30T12:21:46;2.55;;;1.17;;
65031;SDS011;51593;55.714;37.436;2022-10-30T12:24:15;2.60;;;1.17;;
65031;SDS011;51593;55.714;37.436;2022-10-30T12:26:47;4.38;;;1.30;;
65031;SDS011;51593;55.714;37.436;2022-10-30T12:29:16;1.20;;;1.10;;
65031;SDS011;51593;55.714;37.436;2022-10-30T12:32:01;2.92;;;1.20;;
65031;SDS011;51593;55.714;37.436;2022-10-30T12:42:07;1.00;;;0.90;;
65031;SDS011;51593;55.714;37.436;2022-10-30T12:44:48;1.10;;;1.00;;
65031;SDS011;51593;55.714;37.436;2022-10-30T12:47:40;2.05;;;1.20;;
65031;SDS011;51593;55.714;37.436;2022-10-30T12:52:54;1.02;;;0.90;;
65031;SDS011;51593;55.714;37.436;2022-10-30T13:00:29;2.38;;;1.10;;
65031;SDS011;51593;55.714;37.436;2022-10-30T13:13:31;1.17;;;1.00;;
65031;SDS011;51593;55.714;37.436;2022-10-30T13:16:01;0.93;;;0.90;;
65031;SDS011;51593;55.714;37.436;2022-10-30T13:18:28;1.02;;;0.90;;
65031;SDS011;51593;55.714;37.436;2022-10-30T13:26:38;1.10;;;1.00;;
65031;SDS011;51593;55.714;37.436;2022-10-30T13:40:29;1.42;;;1.02;;
65031;SDS011;51593;55.714;37.436;2022-10-30T13:54:06;1.05;;;0.95;;
65031;SDS011;51593;55.714;37.436;2022-10-30T13:56:33;1.75;;;1.00;;
65031;SDS011;51593;55.714;37.436;2022-10-30T14:02:00;2.67;;;1.30;;
65031;SDS011;51593;55.714;37.436;2022-10-30T14:04:56;1.38;;;1.20;;
65031;SDS011;51593;55.714;37.436;2022-10-30T14:07:31;1.73;;;1.23;;
65031;SDS011;51593;55.714;37.436;2022-10-30T14:10:10;1.70;;;1.00;;
65031;SDS011;51593;55.714;37.436;2022-10-30T14:12:44;2.05;;;1.25;;
65031;SDS011;51593;55.714;37.436;2022-10-30T14:20:45;1.15;;;1.02;;
65031;SDS011;51593;55.714;37.436;2022-10-30T14:23:19;2.78;;;1.50;;
65031;SDS011;51593;55.714;37.436;2022-10-30T14:28:29;2.17;;;1.17;;
65031;SDS011;51593;55.714;37.436;2022-10-30T14:31:02;3.20;;;1.20;;
65031;SDS011;51593;55.714;37.436;2022-10-30T14:33:54;1.45;;;1.27;;
65031;SDS011;51593;55.714;37.436;2022-10-30T14:39:00;3.33;;;1.23;;
65031;SDS011;51593;55.714;37.436;2022-10-30T14:42:49;1.90;;;1.17;;
65031;SDS011;51593;55.714;37.436;2022-10-30T14:50:17;1.23;;;1.13;;
65031;SDS011;51593;55.714;37.436;2022-10-30T14:55:22;1.92;;;1.30;;
65031;SDS011;51593;55.714;37.436;2022-10-30T15:00:29;1.25;;;1.15;;
65031;SDS011;51593;55.714;37.436;2022-10-30T15:05:50;1.27;;;1.13;;
65031;SDS011;51593;55.714;37.436;2022-10-30T15:10:56;2.45;;;1.30;;
65031;SDS011;51593;55.714;37.436;2022-10-30T15:13:26;1.45;;;1.20;;
65031;SDS011;51593;55.714;37.436;2022-10-30T15:16:02;3.78;;;1.40;;
65031;SDS011;51593;55.714;37.436;2022-10-30T15:18:30;2.92;;;1.35;;
65031;SDS011;51593;55.714;37.436;2022-10-30T15:20:58;2.05;;;1.50;;
65031;SDS011;51593;55.714;37.436;2022-10-30T15:23:29;3.47;;;1.27;;
65031;SDS011;51593;55.714;37.436;2022-10-30T15:25:58;2.22;;;1.77;;
65031;SDS011;51593;55.714;37.436;2022-10-30T15:28:31;4.53;;;1.40;;
65031;SDS011;51593;55.714;37.436;2022-10-30T15:30:58;2.10;;;1.33;;
65031;SDS011;51593;55.714;37.436;2022-10-30T15:33:25;2.15;;;1.33;;
65031;SDS011;51593;55.714;37.436;2022-10-30T15:35:52;2.03;;;1.42;;
65031;SDS011;51593;55.714;37.436;2022-10-30T15:38:18;1.98;;;1.40;;
65031;SDS011;51593;55.714;37.436;2022-10-30T15:40:44;7.13;;;1.70;;
65031;SDS011;51593;55.714;37.436;2022-10-30T15:43:12;2.00;;;1.33;;
65031;SDS011;51593;55.714;37.436;2022-10-30T15:45:41;6.53;;;1.15;;
65031;SDS011;51593;55.714;37.436;2022-10-30T15:50:43;2.58;;;1.20;;
65031;SDS011;51593;55.714;37.436;2022-10-30T15:53:20;1.67;;;1.08;;
65031;SDS011;51593;55.714;37.436;2022-10-30T15:55:49;4.97;;;1.63;;
65031;SDS011;51593;55.714;37.436;2022-10-30T15:58:16;1.75;;;1.15;;
65031;SDS011;51593;55.714;37.436;2022-10-30T16:00:53;1.63;;;1.33;;
65031;SDS011;51593;55.714;37.436;2022-10-30T16:03:21;2.25;;;1.13;;
65031;SDS011;51593;55.714;37.436;2022-10-30T16:05:47;3.67;;;1.48;;
65031;SDS011;51593;55.714;37.436;2022-10-30T16:08:15;2.47;;;1.42;;
65031;SDS011;51593;55.714;37.436;2022-10-30T16:10:44;7.05;;;1.63;;
65031;SDS011;51593;55.714;37.436;2022-10-30T16:13:29;3.90;;;1.30;;
65031;SDS011;51593;55.714;37.436;2022-10-30T16:15:56;3.97;;;1.70;;
65031;SDS011;51593;55.714;37.436;2022-10-30T16:18:44;3.42;;;1.55;;
65031;SDS011;51593;55.714;37.436;2022-10-30T16:23:38;2.80;;;1.40;;
65031;SDS011;51593;55.714;37.436;2022-10-30T16:26:20;2.75;;;1.40;;
65031;SDS011;51593;55.714;37.436;2022-10-30T16:28:59;5.60;;;1.45;;
65031;SDS011;51593;55.714;37.436;2022-10-30T16:31:28;3.15;;;1.40;;
65031;SDS011;51593;55.714;37.436;2022-10-30T16:34:07;4.68;;;1.70;;
65031;SDS011;51593;55.714;37.436;2022-10-30T16:36:36;2.50;;;1.55;;
65031;SDS011;51593;55.714;37.436;2022-10-30T16:39:02;2.15;;;1.45;;
65031;SDS011;51593;55.714;37.436;2022-10-30T16:41:28;3.35;;;1.70;;
65031;SDS011;51593;55.714;37.436;2022-10-30T16:46:37;2.30;;;1.30;;
65031;SDS011;51593;55.714;37.436;2022-10-30T16:49:06;2.63;;;1.38;;
65031;SDS011;51593;55.714;37.436;2022-10-30T16:51:38;2.08;;;1.40;;
65031;SDS011;51593;55.714;37.436;2022-10-30T16:54:20;4.28;;;1.50;;
65031;SDS011;51593;55.714;37.436;2022-10-30T16:56:49;2.03;;;1.35;;
65031;SDS011;51593;55.714;37.436;2022-10-30T16:59:24;2.58;;;1.35;;
65031;SDS011;51593;55.714;37.436;2022-10-30T17:01:58;3.88;;;1.30;;
65031;SDS011;51593;55.714;37.436;2022-10-30T17:04:33;2.53;;;1.50;;
65031;SDS011;51593;55.714;37.436;2022-10-30T17:07:16;3.03;;;1.30;;
65031;SDS011;51593;55.714;37.436;2022-10-30T17:09:46;2.13;;;1.35;;
65031;SDS011;51593;55.714;37.436;2022-10-30T17:12:15;2.33;;;1.27;;
65031;SDS011;51593;55.714;37.436;2022-10-30T17:17:35;2.55;;;1.40;;
65031;SDS011;51593;55.714;37.436;2022-10-30T17:20:05;2.13;;;1.25;;
65031;SDS011;51593;55.714;37.436;2022-10-30T17:22:39;1.92;;;1.30;;
65031;SDS011;51593;55.714;37.436;2022-10-30T17:25:27;2.13;;;1.25;;
65031;SDS011;51593;55.714;37.436;2022-10-30T17:27:56;2.17;;;1.38;;
65031;SDS011;51593;55.714;37.436;2022-10-30T17:33:20;2.03;;;1.17;;
65031;SDS011;51593;55.714;37.436;2022-10-30T17:35:47;1.75;;;1.10;;
65031;SDS011;51593;55.714;37.436;2022-10-30T17:38:13;2.83;;;1.17;;
65031;SDS011;51593;55.714;37.436;2022-10-30T17:40:39;3.63;;;1.30;;
65031;SDS011;51593;55.714;37.436;2022-10-30T17:43:07;2.13;;;1.20;;
65031;SDS011;51593;55.714;37.436;2022-10-30T17:45:39;2.80;;;1.08;;
65031;SDS011;51593;55.714;37.436;2022-10-30T17:48:12;1.38;;;1.10;;
65031;SDS011;51593;55.714;37.436;2022-10-30T17:50:39;1.20;;;1.10;;
65031;SDS011;51593;55.714;37.436;2022-10-30T17:53:05;3.75;;;1.20;;
65031;SDS011;51593;55.714;37.436;2022-10-30T17:55:33;1.77;;;1.23;;
65031;SDS011;51593;55.714;37.436;2022-10-30T17:58:00;1.35;;;1.00;;
65031;SDS011;51593;55.714;37.436;2022-10-30T18:00:26;2.97;;;1.40;;
65031;SDS011;51593;55.714;37.436;2022-10-30T18:02:53;1.00;;;1.00;;
65031;SDS011;51593;55.714;37.436;2022-10-30T18:05:20;1.65;;;1.08;;
65031;SDS011;51593;55.714;37.436;2022-10-30T18:07:50;4.53;;;1.45;;
65031;SDS011;51593;55.714;37.436;2022-10-30T18:10:16;1.25;;;1.15;;
65031;SDS011;51593;55.714;37.436;2022-10-30T18:12:42;3.28;;;1.65;;
65031;SDS011;51593;55.714;37.436;2022-10-30T18:15:17;2.80;;;1.42;;
65031;SDS011;51593;55.714;37.436;2022-10-30T18:17:50;3.60;;;1.30;;